createdAt,value
2022-08-30T00:03:31.389Z,100652.75
2022-08-30T00:08:32.223Z,100653.44
2022-08-30T00:13:33.426Z,100652.78
2022-08-30T00:18:35.983Z,100661.50
2022-08-30T00:23:37.321Z,100651.06
2022-08-30T00:28:38.007Z,100652.44
2022-08-30T00:33:40.518Z,100654.25
2022-08-30T00:38:41.140Z,100656.63
2022-08-30T00:43:41.825Z,100667.06
2022-08-30T00:48:48.785Z,100676.03
2022-08-30T00:53:52.136Z,100666.19
2022-08-30T00:58:56.373Z,100662.50
2022-08-30T01:03:58.881Z,100659.91
2022-08-30T01:08:59.982Z,100653.72
2022-08-30T01:14:02.200Z,100661.66
2022-08-30T01:19:05.303Z,100656.41
2022-08-30T01:24:10.093Z,100658.97
2022-08-30T01:29:14.402Z,100655.88
2022-08-30T01:34:15.032Z,100658.66
2022-08-30T01:39:18.671Z,100655.81
2022-08-30T01:44:19.290Z,100660.00
2022-08-30T01:49:27.402Z,100662.66
2022-08-30T01:54:33.386Z,100665.72
2022-08-30T01:59:40.791Z,100664.28
2022-08-30T02:04:41.873Z,100669.56
2022-08-30T02:09:44.174Z,100670.53
2022-08-30T02:14:46.857Z,100658.41
2022-08-30T02:19:47.623Z,100670.59
2022-08-30T02:24:49.570Z,100657.66
2022-08-30T02:29:50.230Z,100665.97
2022-08-30T02:34:50.956Z,100665.66
2022-08-30T02:39:53.367Z,100662.25
2022-08-30T02:44:54.592Z,100668.72
2022-08-30T02:49:55.201Z,100662.69
2022-08-30T02:54:57.215Z,100668.06
2022-08-30T02:59:58.632Z,100662.19
2022-08-30T03:04:59.260Z,100653.81
2022-08-30T03:10:01.221Z,100659.00
2022-08-30T03:15:01.886Z,100670.19
2022-08-30T03:20:02.953Z,100665.72
2022-08-30T03:25:05.811Z,100663.13
2022-08-30T03:30:08.401Z,100666.69
2022-08-30T03:35:10.107Z,100659.78
2022-08-30T03:40:14.486Z,100656.94
2022-08-30T03:45:18.238Z,100658.69
2022-08-30T03:50:18.964Z,100655.69
2022-08-30T03:55:21.117Z,100649.81
2022-08-30T04:00:22.265Z,100649.72
2022-08-30T04:05:22.879Z,100653.84
2022-08-30T04:10:25.021Z,100652.47
2022-08-30T04:15:25.746Z,100659.56
2022-08-30T04:20:27.358Z,100665.78
2022-08-30T04:25:29.383Z,100680.47
2022-08-30T04:30:30.022Z,100677.97
2022-08-30T04:35:30.665Z,100679.69
2022-08-30T04:40:32.738Z,100680.47
2022-08-30T04:45:33.464Z,100692.53
2022-08-30T04:50:34.819Z,100695.91
2022-08-30T04:55:46.704Z,100696.66
2022-08-30T05:00:47.387Z,100700.94
2022-08-30T05:05:49.191Z,100700.84
2022-08-30T05:10:53.109Z,100711.97
2022-08-30T05:15:53.716Z,100712.84
2022-08-30T05:21:05.110Z,100713.59
2022-08-30T05:26:09.914Z,100716.16
2022-08-30T05:31:16.121Z,100723.69
2022-08-30T05:36:19.448Z,100727.03
2022-08-30T05:41:22.863Z,100728.56
2022-08-30T05:46:29.794Z,100714.59
2022-08-30T05:51:32.046Z,100724.78
2022-08-30T05:56:37.235Z,100720.16
2022-08-30T06:01:40.599Z,100727.72
2022-08-30T06:06:43.301Z,100734.47
2022-08-30T06:11:46.657Z,100740.25
2022-08-30T06:16:47.442Z,100738.44
2022-08-30T06:21:50.575Z,100735.78
2022-08-30T06:26:52.615Z,100721.56
2022-08-30T06:31:53.339Z,100716.06
2022-08-30T06:36:54.974Z,100723.53
2022-08-30T06:41:56.902Z,100721.53
2022-08-30T06:47:00.860Z,100718.59
2022-08-30T06:52:01.659Z,100715.75
2022-08-30T06:57:05.675Z,100711.41
2022-08-30T07:02:07.329Z,100716.38
2022-08-30T07:07:11.716Z,100714.31
2022-08-30T07:12:15.487Z,100715.50
2022-08-30T07:17:34.899Z,100708.09
2022-08-30T07:22:35.803Z,100711.09
2022-08-30T07:27:37.868Z,100719.25
2022-08-30T07:32:39.009Z,100728.22
2022-08-30T07:37:39.675Z,100739.91
2022-08-30T07:42:41.939Z,100747.13
2022-08-30T07:47:42.992Z,100741.59
2022-08-30T07:52:43.714Z,100738.59
2022-08-30T07:57:45.656Z,100733.97
2022-08-30T08:02:46.321Z,100735.38
2022-08-30T08:07:47.007Z,100737.84
2022-08-30T08:12:49.662Z,100730.03
2022-08-30T08:17:52.762Z,100719.69
2022-08-30T08:22:53.696Z,100726.16
2022-08-30T08:27:55.926Z,100730.47
2022-08-30T08:32:57.892Z,100730.13
2022-08-30T08:37:58.641Z,100723.59
2022-08-30T08:43:06.107Z,100739.63
2022-08-30T08:48:11.564Z,100731.88
2022-08-30T08:53:51.462Z,100722.34
2022-08-30T08:58:56.570Z,100725.47
2022-08-30T09:03:59.159Z,100718.19
2022-08-30T09:08:59.827Z,100709.97
2022-08-30T09:14:01.830Z,100706.75
2022-08-30T09:19:02.758Z,100717.88
2022-08-30T09:24:08.659Z,100713.91
2022-08-30T09:29:18.079Z,100704.97
2022-08-30T09:34:20.827Z,100708.09
2022-08-30T09:39:28.670Z,100695.53
2022-08-30T09:44:38.772Z,100698.47
2022-08-30T09:49:43.134Z,100703.84
2022-08-30T09:54:58.811Z,100699.16
2022-08-30T10:00:07.239Z,100682.50
2022-08-30T10:05:16.446Z,100675.78
2022-08-30T10:10:23.563Z,100680.03
2022-08-30T10:15:30.898Z,100685.00
2022-08-30T10:20:37.707Z,100688.75
2022-08-30T10:25:44.816Z,100687.53
2022-08-30T10:30:53.716Z,100683.31
2022-08-30T10:35:57.659Z,100674.53
2022-08-30T10:41:14.827Z,100678.03
2022-08-30T10:46:20.778Z,100670.69
2022-08-30T10:51:27.571Z,100677.97
2022-08-30T10:56:30.399Z,100673.94
2022-08-30T11:01:51.973Z,100676.94
2022-08-30T11:07:09.840Z,100664.75
2022-08-30T11:12:24.947Z,100660.25
2022-08-30T11:17:32.660Z,100667.78
2022-08-30T11:22:38.780Z,100659.03
2022-08-30T11:27:41.995Z,100662.22
2022-08-30T11:33:00.166Z,100647.88
2022-08-30T11:38:11.905Z,100646.78
2022-08-30T11:43:51.014Z,100648.25
2022-08-30T11:48:56.869Z,100641.28
2022-08-30T11:54:06.435Z,100643.53
2022-08-30T11:59:18.987Z,100653.31
2022-08-30T12:04:37.417Z,100644.16
2022-08-30T12:10:05.819Z,100635.44
2022-08-30T12:15:06.938Z,100625.22
2022-08-30T12:20:21.289Z,100623.97
2022-08-30T12:25:39.889Z,100618.84
2022-08-30T12:30:41.383Z,100621.47
2022-08-30T12:35:45.328Z,100624.41
2022-08-30T12:40:54.589Z,100636.16
2022-08-30T12:45:58.450Z,100620.16
2022-08-30T12:51:10.937Z,100621.31
2022-08-30T12:56:14.623Z,100616.75
2022-08-30T13:01:19.840Z,100612.66
2022-08-30T13:11:52.018Z,100606.56
2022-08-30T13:17:06.935Z,100604.34
2022-08-30T13:22:24.373Z,100603.81
2022-08-30T13:27:30.161Z,100603.59
2022-08-30T13:32:38.784Z,100606.31
2022-08-30T13:37:49.997Z,100602.38
2022-08-30T13:42:53.526Z,100589.34
2022-08-30T13:47:55.872Z,100595.16
2022-08-30T13:52:56.565Z,100599.56
2022-08-30T13:57:58.571Z,100585.34
2022-08-30T14:02:59.945Z,100581.81
2022-08-30T14:08:01.171Z,100588.53
2022-08-30T14:13:08.926Z,100588.88
2022-08-30T14:18:13.500Z,100583.44
2022-08-30T14:23:16.490Z,100583.47
2022-08-30T14:28:18.702Z,100572.78
2022-08-30T14:33:21.318Z,100578.03
2022-08-30T14:38:21.945Z,100577.94
2022-08-30T14:43:24.383Z,100577.50
2022-08-30T14:48:25.303Z,100571.28
2022-08-30T14:53:28.839Z,100565.97
2022-08-30T14:58:31.006Z,100566.13
2022-08-30T15:03:31.675Z,100561.94
2022-08-30T15:08:32.400Z,100566.84
2022-08-30T15:13:35.032Z,100567.06
2022-08-30T15:18:35.823Z,100561.97
2022-08-30T15:23:36.584Z,100556.03
2022-08-30T15:28:39.567Z,100550.53
2022-08-30T15:33:40.666Z,100552.88
2022-08-30T15:38:45.006Z,100548.19
2022-08-30T15:43:47.300Z,100547.34
2022-08-30T15:48:48.005Z,100543.41
2022-08-30T15:53:49.333Z,100547.91
2022-08-30T15:58:53.010Z,100554.56
2022-08-30T16:03:53.942Z,100549.63
2022-08-30T16:08:54.604Z,100551.28
2022-08-30T16:13:57.559Z,100559.13
2022-08-30T16:18:58.559Z,100548.00
2022-08-30T16:24:01.761Z,100546.63
2022-08-30T16:29:05.319Z,100541.47
2022-08-30T16:34:07.894Z,100530.09
2022-08-30T16:39:12.695Z,100534.44
2022-08-30T16:44:15.643Z,100534.88
2022-08-30T16:49:18.491Z,100541.63
2022-08-30T16:54:19.860Z,100541.25
2022-08-30T16:59:22.162Z,100529.72
2022-08-30T17:04:22.853Z,100531.41
2022-08-30T17:09:23.457Z,100533.97
2022-08-30T17:14:27.603Z,100543.81
2022-08-30T17:19:29.302Z,100545.00
2022-08-30T17:24:30.360Z,100545.09
2022-08-30T17:29:32.640Z,100550.53
2022-08-30T17:34:34.666Z,100556.75
2022-08-30T17:39:35.561Z,100557.19
2022-08-30T17:44:38.053Z,100561.72
2022-08-30T17:49:42.965Z,100559.78
2022-08-30T17:54:43.577Z,100564.94
2022-08-30T17:59:46.122Z,100571.22
2022-08-30T18:04:47.142Z,100581.66
2022-08-30T18:09:47.774Z,100586.63
2022-08-30T18:14:52.900Z,100584.34
2022-08-30T18:19:55.064Z,100599.13
2022-08-30T18:25:02.228Z,100594.19
2022-08-30T18:30:07.004Z,100598.44
2022-08-30T18:35:12.450Z,100592.97
2022-08-30T18:40:18.764Z,100593.94
2022-08-30T18:45:23.051Z,100604.06
2022-08-30T18:50:23.698Z,100608.34
2022-08-30T18:55:25.016Z,100609.22
2022-08-30T19:00:27.177Z,100609.97
2022-08-30T19:05:28.316Z,100618.81
2022-08-30T19:10:32.907Z,100610.59
2022-08-30T19:15:35.671Z,100620.69
2022-08-30T19:20:36.345Z,100609.56
2022-08-30T19:25:38.095Z,100617.59
2022-08-30T19:30:41.309Z,100622.41
2022-08-30T19:35:48.937Z,100622.84
2022-08-30T19:40:54.710Z,100624.16
2022-08-30T19:45:58.231Z,100628.38
2022-08-30T19:50:59.013Z,100619.13
2022-08-30T19:56:00.248Z,100615.66
2022-08-30T20:01:10.562Z,100613.44
2022-08-30T20:06:23.070Z,100617.69
2022-08-30T20:11:23.731Z,100617.75
2022-08-30T20:16:35.476Z,100616.63
2022-08-30T20:21:38.784Z,100619.94
2022-08-30T20:26:40.159Z,100616.09
2022-08-30T20:31:42.090Z,100620.75
2022-08-30T20:36:43.129Z,100619.34
2022-08-30T20:41:44.490Z,100623.88
2022-08-30T20:46:49.445Z,100625.03
2022-08-30T20:51:54.302Z,100633.88
2022-08-30T20:56:55.290Z,100637.53
2022-08-30T21:01:58.169Z,100643.72
2022-08-30T21:06:59.365Z,100658.72
2022-08-30T21:12:00.013Z,100657.00
2022-08-30T21:17:02.173Z,100649.03
2022-08-30T21:22:03.758Z,100645.03
2022-08-30T21:27:04.832Z,100644.22
2022-08-30T21:32:08.299Z,100640.88
2022-08-30T21:37:08.894Z,100641.09
2022-08-30T21:42:11.970Z,100638.69
2022-08-30T21:47:13.931Z,100650.09
2022-08-30T21:52:23.878Z,100652.25
2022-08-30T21:57:24.817Z,100654.94
2022-08-30T22:02:27.074Z,100660.22
2022-08-30T22:07:27.889Z,100657.88
2022-08-30T22:12:28.674Z,100664.94
2022-08-30T22:17:30.623Z,100677.31
2022-08-30T22:22:31.262Z,100676.81
2022-08-30T22:27:31.936Z,100678.84
2022-08-30T22:32:33.863Z,100668.59
2022-08-30T22:37:34.475Z,100666.78
2022-08-30T22:42:36.186Z,100663.47
2022-08-30T22:47:38.111Z,100666.38
2022-08-30T22:52:38.962Z,100676.91
2022-08-30T22:57:40.745Z,100674.50
2022-08-30T23:02:42.858Z,100679.97
2022-08-30T23:07:44.156Z,100685.97
2022-08-30T23:12:45.217Z,100688.69
2022-08-30T23:17:47.163Z,100694.25
2022-08-30T23:22:47.603Z,100679.06
2022-08-30T23:28:06.079Z,100680.31
2022-08-30T23:33:25.737Z,100680.25
2022-08-30T23:38:44.144Z,100680.31
2022-08-30T23:44:02.092Z,100677.13
2022-08-30T23:49:22.291Z,100678.84
2022-08-30T23:54:40.617Z,100676.41
2022-08-30T23:59:58.904Z,100671.25
